Time;durP1;ratioP1;P1;durP2;ratioP2;P2;SDS_P1;SDS_P2;PMS_P1;PMS_P2;Temp;Humidity;BMP_temperature;BMP_pressure;BME280_temperature;BME280_humidity;BME280_pressure;Samples;Min_cycle;Max_cycle;Signal;HPM_P1;HPM_P2
2022/07/28 00:00:24;;;;;;;3.15;1.52;;;11.30;99.90;;;;;;5016478;28;20061;-68
2022/07/28 00:02:49;;;;;;;2.72;1.20;;;11.20;99.90;;;;;;5016103;28;20093;-68
2022/07/28 00:05:15;;;;;;;3.45;1.30;;;11.20;99.90;;;;;;5016265;28;20057;-69
2022/07/28 00:07:40;;;;;;;3.63;1.48;;;11.20;99.90;;;;;;5016323;28;20058;-69
2022/07/28 00:10:07;;;;;;;1.70;1.02;;;11.30;99.90;;;;;;5015980;28;20042;-69
2022/07/28 00:12:32;;;;;;;2.38;1.10;;;11.20;99.90;;;;;;5016230;28;20050;-69
2022/07/28 00:14:58;;;;;;;2.90;1.27;;;11.10;99.90;;;;;;5016107;28;20498;-69
2022/07/28 00:17:23;;;;;;;1.90;1.08;;;11.10;99.90;;;;;;5016675;28;20477;-68
2022/07/28 00:19:49;;;;;;;4.57;1.65;;;11.10;99.90;;;;;;5016596;28;20050;-69
2022/07/28 00:22:15;;;;;;;2.72;1.15;;;11.10;99.90;;;;;;5016388;28;20129;-68
2022/07/28 00:24:41;;;;;;;3.25;1.35;;;11.10;99.90;;;;;;5016056;28;20097;-69
2022/07/28 00:27:07;;;;;;;4.65;1.40;;;11.10;99.90;;;;;;5016304;28;20081;-69
2022/07/28 00:29:32;;;;;;;2.35;1.25;;;11.10;99.90;;;;;;5015947;28;20429;-69
2022/07/28 00:31:59;;;;;;;3.08;1.30;;;11.00;99.90;;;;;;5015825;28;20052;-69
2022/07/28 00:34:24;;;;;;;2.20;1.27;;;11.00;99.90;;;;;;5015376;28;20137;-68
2022/07/28 00:36:50;;;;;;;1.85;1.00;;;11.00;99.90;;;;;;5016076;28;20125;-69
2022/07/28 00:39:15;;;;;;;2.97;1.20;;;11.00;99.90;;;;;;5016171;28;20054;-69
2022/07/28 00:41:41;;;;;;;1.88;1.20;;;10.90;99.90;;;;;;5016090;28;20477;-69
2022/07/28 00:44:07;;;;;;;3.38;1.60;;;10.90;99.90;;;;;;5015696;28;20137;-68
2022/07/28 00:46:33;;;;;;;2.70;1.42;;;10.90;99.90;;;;;;5015561;28;20125;-68
2022/07/28 00:49:00;;;;;;;3.10;1.40;;;10.90;99.90;;;;;;5015527;28;20467;-69
2022/07/28 00:51:26;;;;;;;2.33;1.33;;;10.90;99.90;;;;;;5016004;28;20038;-69
2022/07/28 00:53:53;;;;;;;3.20;1.45;;;10.90;99.90;;;;;;5016126;28;20042;-68
2022/07/28 00:56:19;;;;;;;4.78;1.67;;;10.90;99.90;;;;;;5015410;28;20041;-69
2022/07/28 00:58:46;;;;;;;5.78;1.85;;;10.80;99.90;;;;;;5015335;28;20085;-69
2022/07/28 01:01:18;;;;;;;3.78;1.50;;;10.80;99.90;;;;;;5015203;28;20056;-68
2022/07/28 01:03:49;;;;;;;4.20;1.55;;;10.80;99.90;;;;;;5015902;28;20132;-69
2022/07/28 01:06:36;;;;;;;4.80;1.27;;;10.80;99.90;;;;;;5015331;28;20116;-68
2022/07/28 01:09:33;;;;;;;5.13;1.38;;;10.80;99.90;;;;;;5015752;28;20092;-68
2022/07/28 01:12:25;;;;;;;3.72;1.33;;;10.80;99.90;;;;;;4961282;28;20057;-69
2022/07/28 01:15:02;;;;;;;1.83;0.95;;;10.70;99.90;;;;;;5014263;28;20060;-69
2022/07/28 01:18:05;;;;;;;2.70;1.15;;;10.70;99.90;;;;;;4997935;28;20462;-68
2022/07/28 01:21:02;;;;;;;5.53;1.50;;;10.70;99.90;;;;;;4998353;28;20363;-68
2022/07/28 01:23:30;;;;;;;2.25;1.13;;;10.80;99.90;;;;;;5013837;28;20046;-69
2022/07/28 01:26:15;;;;;;;3.28;1.70;;;10.70;99.90;;;;;;5015310;28;20053;-69
2022/07/28 01:29:00;;;;;;;3.50;1.10;;;10.70;99.90;;;;;;5015038;28;20370;-68
2022/07/28 01:31:33;;;;;;;2.60;1.30;;;10.70;99.90;;;;;;5015627;28;20045;-68
2022/07/28 01:34:07;;;;;;;5.68;1.80;;;10.70;99.90;;;;;;5015083;28;20042;-68
2022/07/28 01:36:38;;;;;;;1.88;1.10;;;10.80;99.90;;;;;;5014994;28;20139;-69
2022/07/28 01:39:04;;;;;;;1.80;1.02;;;10.80;99.90;;;;;;5014927;28;20045;-68
2022/07/28 01:41:31;;;;;;;2.85;1.08;;;10.80;99.90;;;;;;5015455;28;20470;-68
2022/07/28 01:44:05;;;;;;;2.67;1.00;;;10.80;99.90;;;;;;5014812;28;20537;-68
2022/07/28 01:46:31;;;;;;;;;;;10.80;99.90;;;;;;5015119;28;20058;-69
2022/07/28 01:48:58;;;;;;;1.85;1.17;;;10.80;99.90;;;;;;5014899;28;19925;-69
2022/07/28 01:51:27;;;;;;;2.53;1.48;;;10.80;99.90;;;;;;5014753;28;20041;-69
2022/07/28 01:53:55;;;;;;;3.25;1.30;;;10.80;99.90;;;;;;5014785;28;20046;-68
2022/07/28 01:56:23;;;;;;;3.47;1.60;;;10.80;99.90;;;;;;4997615;28;20088;-68
2022/07/28 01:58:51;;;;;;;2.55;1.10;;;10.80;99.90;;;;;;5014495;28;20509;-68
2022/07/28 02:01:18;;;;;;;2.60;1.38;;;10.80;99.90;;;;;;5015567;28;20065;-68
2022/07/28 02:03:46;;;;;;;2.88;1.20;;;10.80;99.90;;;;;;5014844;28;20475;-68
2022/07/28 02:06:12;;;;;;;1.83;1.20;;;10.80;99.90;;;;;;5015156;28;20075;-69
2022/07/28 02:08:39;;;;;;;3.15;1.30;;;10.90;99.90;;;;;;5015274;28;20343;-68
2022/07/28 02:13:52;;;;;;;1.85;1.20;;;10.70;99.90;;;;;;5014672;28;20052;-69
2022/07/28 02:16:21;;;;;;;3.65;1.27;;;10.70;99.90;;;;;;5014590;28;20100;-69
2022/07/28 02:18:48;;;;;;;3.15;1.70;;;10.70;99.90;;;;;;5015015;28;20470;-68
2022/07/28 02:21:15;;;;;;;4.72;1.48;;;10.70;99.90;;;;;;5014628;28;20057;-68
2022/07/28 02:23:44;;;;;;;1.70;1.08;;;10.70;99.90;;;;;;5014521;28;20041;-69
2022/07/28 02:26:12;;;;;;;3.92;1.10;;;10.70;99.90;;;;;;5016989;28;20041;-69
2022/07/28 02:28:41;;;;;;;5.20;1.80;;;10.70;99.90;;;;;;5001227;28;20519;-69
2022/07/28 02:31:25;;;;;;;2.20;1.23;;;10.70;99.90;;;;;;5018634;28;20049;-68
2022/07/28 02:33:54;;;;;;;2.30;1.25;;;10.70;99.90;;;;;;5018119;28;20038;-68
2022/07/28 02:36:27;;;;;;;3.40;1.50;;;10.60;99.90;;;;;;5000881;28;20050;-68
2022/07/28 02:38:57;;;;;;;2.30;1.10;;;10.60;99.90;;;;;;5018089;28;20111;-68
2022/07/28 02:41:28;;;;;;;3.05;1.27;;;10.60;99.90;;;;;;5001140;28;20046;-69
2022/07/28 02:43:58;;;;;;;1.77;1.00;;;10.50;99.90;;;;;;5017693;28;20050;-68
2022/07/28 02:46:41;;;;;;;1.88;1.38;;;10.50;99.90;;;;;;5017941;28;20106;-69
2022/07/28 02:49:13;;;;;;;3.03;1.33;;;10.50;99.90;;;;;;5018187;28;20091;-69
2022/07/28 02:51:42;;;;;;;1.98;1.17;;;10.50;99.90;;;;;;5017933;28;20367;-69
2022/07/28 02:54:09;;;;;;;3.03;1.45;;;10.50;99.90;;;;;;5017578;28;20053;-69
2022/07/28 02:56:35;;;;;;;2.65;1.35;;;10.50;99.90;;;;;;5017881;28;20061;-69
2022/07/28 02:59:02;;;;;;;2.95;1.63;;;10.50;99.90;;;;;;5017959;28;20050;-69
2022/07/28 03:01:30;;;;;;;2.65;1.25;;;10.50;99.90;;;;;;5017726;28;20082;-69
2022/07/28 03:03:56;;;;;;;5.53;1.55;;;10.50;99.90;;;;;;5017759;28;20060;-69
2022/07/28 03:06:22;;;;;;;4.68;1.27;;;10.50;99.90;;;;;;5017571;28;20042;-68
2022/07/28 03:08:51;;;;;;;2.50;1.63;;;10.40;99.90;;;;;;5017409;28;20075;-68
2022/07/28 03:11:17;;;;;;;5.45;1.88;;;10.40;99.90;;;;;;5017318;28;20049;-68
2022/07/28 03:13:42;;;;;;;2.40;1.30;;;10.40;99.90;;;;;;5017742;28;20370;-69
2022/07/28 03:16:08;;;;;;;4.18;1.40;;;10.40;99.90;;;;;;5017877;28;20054;-68
2022/07/28 03:18:34;;;;;;;2.90;1.42;;;10.40;99.90;;;;;;5000214;28;20062;-69
2022/07/28 03:21:00;;;;;;;2.40;1.30;;;10.40;99.90;;;;;;5017263;28;20046;-69
2022/07/28 03:23:46;;;;;;;3.30;1.52;;;10.40;99.90;;;;;;5000070;28;20065;-69
2022/07/28 03:26:34;;;;;;;5.85;1.70;;;10.30;99.90;;;;;;5017148;28;20042;-69
2022/07/28 03:29:01;;;;;;;2.13;1.10;;;10.30;99.90;;;;;;5017092;28;20103;-69
2022/07/28 03:31:27;;;;;;;2.42;1.63;;;10.40;99.90;;;;;;5017016;28;20474;-69
2022/07/28 03:33:53;;;;;;;3.60;1.50;;;10.30;99.90;;;;;;5016935;28;20042;-69
2022/07/28 03:36:26;;;;;;;2.13;1.40;;;10.40;99.90;;;;;;5016182;28;20050;-68
2022/07/28 03:38:59;;;;;;;2.38;1.27;;;10.40;99.90;;;;;;5016760;28;20118;-68
2022/07/28 03:41:25;;;;;;;3.80;1.40;;;10.40;99.90;;;;;;5016774;28;20467;-68
2022/07/28 03:43:51;;;;;;;3.33;1.50;;;10.40;99.90;;;;;;4999946;28;20057;-69
2022/07/28 03:46:17;;;;;;;3.42;1.27;;;10.40;99.90;;;;;;5016715;28;20049;-69
2022/07/28 03:48:43;;;;;;;2.88;1.60;;;10.40;99.90;;;;;;5016672;28;20079;-69
2022/07/28 03:51:09;;;;;;;2.97;1.38;;;10.40;99.90;;;;;;5017033;28;20084;-68
2022/07/28 03:53:35;;;;;;;3.97;1.60;;;10.50;99.90;;;;;;4999785;28;20465;-68
2022/07/28 03:56:02;;;;;;;2.20;1.20;;;10.40;99.90;;;;;;5016741;28;20366;-68
2022/07/28 03:58:28;;;;;;;2.97;1.40;;;10.40;99.90;;;;;;5017187;28;20359;-69
2022/07/28 04:00:53;;;;;;;3.53;1.42;;;10.50;99.90;;;;;;5016023;28;20042;-68
2022/07/28 04:03:19;;;;;;;2.95;1.40;;;10.50;99.90;;;;;;5017239;28;20042;-69
2022/07/28 04:05:46;;;;;;;2.53;1.30;;;10.60;99.90;;;;;;5017081;28;20064;-69
2022/07/28 04:08:12;;;;;;;8.02;1.35;;;10.60;99.90;;;;;;5016399;28;20111;-69
2022/07/28 04:10:38;;;;;;;2.72;1.25;;;10.70;99.90;;;;;;5016666;28;20136;-69
2022/07/28 04:13:04;;;;;;;1.88;1.10;;;10.80;99.90;;;;;;5016330;28;20218;-69
2022/07/28 04:15:31;;;;;;;3.72;1.45;;;10.80;99.90;;;;;;5016071;28;20193;-68
2022/07/28 04:17:57;;;;;;;2.15;1.20;;;10.90;99.90;;;;;;4999886;28;20050;-70
2022/07/28 04:20:25;;;;;;;2.55;1.40;;;10.90;99.90;;;;;;5016107;28;20046;-69
2022/07/28 04:22:51;;;;;;;2.67;1.20;;;11.00;99.90;;;;;;5016139;28;20081;-69
2022/07/28 04:25:19;;;;;;;2.75;1.15;;;11.00;99.90;;;;;;5016001;28;20053;-68
2022/07/28 04:27:45;;;;;;;3.40;1.17;;;11.10;99.90;;;;;;5016531;28;20096;-69
2022/07/28 04:30:16;;;;;;;3.33;1.20;;;11.10;99.90;;;;;;4998954;28;20041;-69
2022/07/28 04:32:46;;;;;;;2.50;1.30;;;11.30;99.90;;;;;;5015803;28;20462;-68
2022/07/28 04:35:12;;;;;;;2.60;1.45;;;11.30;99.90;;;;;;5015703;28;20116;-69
2022/07/28 04:37:39;;;;;;;3.25;1.33;;;11.30;99.90;;;;;;5016075;28;20042;-69
2022/07/28 04:40:06;;;;;;;2.13;1.20;;;11.30;99.90;;;;;;5015723;28;20046;-68
2022/07/28 04:42:32;;;;;;;2.65;1.38;;;11.40;99.90;;;;;;5015695;28;20046;-69
2022/07/28 04:44:58;;;;;;;3.63;1.25;;;11.50;99.90;;;;;;5015462;28;20470;-68
2022/07/28 04:47:24;;;;;;;2.50;1.25;;;11.60;99.90;;;;;;5015555;28;20065;-68
2022/07/28 04:49:51;;;;;;;8.63;1.38;;;11.60;99.90;;;;;;5016030;28;20060;-68
2022/07/28 04:52:17;;;;;;;2.15;1.27;;;11.70;99.90;;;;;;5015786;28;20038;-69
2022/07/28 04:54:44;;;;;;;4.68;1.20;;;11.70;99.90;;;;;;5015440;28;20060;-69
2022/07/28 04:57:10;;;;;;;2.67;1.13;;;11.80;99.90;;;;;;5015497;28;20060;-69
2022/07/28 04:59:37;;;;;;;3.38;1.52;;;11.90;99.90;;;;;;5015417;28;20057;-68
2022/07/28 05:02:03;;;;;;;3.40;1.48;;;11.90;99.90;;;;;;5015394;28;20054;-69
2022/07/28 05:04:28;;;;;;;2.28;1.40;;;12.00;99.90;;;;;;5015212;28;20060;-69
2022/07/28 05:06:54;;;;;;;2.28;1.33;;;12.00;99.90;;;;;;5015367;28;20081;-68
2022/07/28 05:09:20;;;;;;;2.10;1.17;;;12.10;99.90;;;;;;5015301;28;20379;-69
2022/07/28 05:11:46;;;;;;;6.20;1.35;;;12.20;99.90;;;;;;5015101;28;20064;-68
2022/07/28 05:14:12;;;;;;;5.95;1.42;;;12.20;99.90;;;;;;5015722;28;20046;-69
2022/07/28 05:16:37;;;;;;;2.42;1.30;;;12.30;99.90;;;;;;5015258;28;20073;-68
2022/07/28 05:19:03;;;;;;;2.80;1.45;;;12.30;99.90;;;;;;5015243;28;20454;-69
2022/07/28 05:21:28;;;;;;;5.65;1.30;;;12.50;99.90;;;;;;5015747;28;20042;-69
2022/07/28 05:23:54;;;;;;;2.58;1.30;;;12.50;99.90;;;;;;5015203;28;20049;-69
2022/07/28 05:26:20;;;;;;;1.88;1.20;;;12.50;99.90;;;;;;4998103;28;20069;-69
2022/07/28 05:28:45;;;;;;;2.47;1.10;;;12.60;99.90;;;;;;5015073;28;20417;-69
2022/07/28 05:31:11;;;;;;;2.78;1.25;;;12.60;99.90;;;;;;4998645;28;20049;-68
2022/07/28 05:33:36;;;;;;;2.28;1.30;;;12.70;99.90;;;;;;5015293;28;20180;-69
2022/07/28 05:36:03;;;;;;;6.10;1.58;;;12.80;99.90;;;;;;5014766;28;20050;-68
2022/07/28 05:38:30;;;;;;;1.90;1.20;;;12.70;99.90;;;;;;5015079;28;20061;-69
2022/07/28 05:40:56;;;;;;;1.83;1.00;;;12.80;99.90;;;;;;5015022;28;20061;-69
2022/07/28 05:43:21;;;;;;;2.35;1.10;;;12.80;99.90;;;;;;5014938;28;20455;-69
2022/07/28 05:45:47;;;;;;;2.20;1.17;;;12.80;99.90;;;;;;5014901;28;20038;-69
2022/07/28 05:48:19;;;;;;;2.63;1.13;;;12.90;99.90;;;;;;5015359;28;20050;-69
2022/07/28 05:50:45;;;;;;;3.17;1.40;;;13.00;99.90;;;;;;5014752;28;20060;-69
2022/07/28 05:53:11;;;;;;;3.15;1.20;;;13.00;99.90;;;;;;5014886;28;20056;-69
2022/07/28 05:55:37;;;;;;;2.85;1.40;;;13.10;99.90;;;;;;5014442;28;20132;-69
2022/07/28 05:58:02;;;;;;;4.38;1.40;;;13.20;99.90;;;;;;5015118;28;20085;-69
2022/07/28 06:00:28;;;;;;;3.42;1.58;;;13.20;99.90;;;;;;5016463;28;20042;-68
2022/07/28 06:02:54;;;;;;;5.10;1.85;;;13.30;99.90;;;;;;5018986;28;20064;-69
2022/07/28 06:05:21;;;;;;;5.47;1.35;;;13.30;99.90;;;;;;5018656;28;20081;-68
2022/07/28 06:07:48;;;;;;;2.63;1.17;;;13.40;99.90;;;;;;5018812;28;20073;-69
2022/07/28 06:10:17;;;;;;;4.07;1.30;;;13.50;99.90;;;;;;5018580;28;20124;-69
2022/07/28 06:12:48;;;;;;;3.95;1.67;;;13.60;99.90;;;;;;5018696;28;20077;-69
2022/07/28 06:15:16;;;;;;;3.65;1.85;;;13.70;99.90;;;;;;5018242;28;20496;-69
2022/07/28 06:17:42;;;;;;;3.45;1.23;;;13.80;99.90;;;;;;5018457;28;20042;-69
2022/07/28 06:20:09;;;;;;;4.45;1.65;;;14.00;99.90;;;;;;5018329;28;20114;-69
2022/07/28 06:22:47;;;;;;;3.28;1.63;;;14.20;99.90;;;;;;5018249;28;20038;-69
2022/07/28 06:25:14;;;;;;;2.83;1.40;;;14.30;99.90;;;;;;5018271;28;20042;-68
2022/07/28 06:27:39;;;;;;;5.03;1.25;;;14.50;99.90;;;;;;5019245;28;20046;-69
2022/07/28 06:30:06;;;;;;;2.58;1.42;;;14.60;99.90;;;;;;5018189;28;20042;-69
2022/07/28 06:32:31;;;;;;;7.18;1.42;;;14.80;99.90;;;;;;5000893;28;20526;-69
2022/07/28 06:34:57;;;;;;;2.72;1.33;;;14.70;99.90;;;;;;5018115;28;20177;-68
2022/07/28 06:37:22;;;;;;;3.65;1.23;;;14.90;99.90;;;;;;5017709;28;20057;-68
2022/07/28 06:39:48;;;;;;;2.72;1.20;;;15.00;99.90;;;;;;5018498;28;20501;-69
2022/07/28 06:42:13;;;;;;;2.50;1.30;;;15.00;99.90;;;;;;5017977;28;20485;-68
2022/07/28 06:44:39;;;;;;;2.22;1.00;;;15.10;99.90;;;;;;5018415;28;20042;-69
2022/07/28 06:47:05;;;;;;;2.72;1.40;;;15.10;99.90;;;;;;5018114;28;20045;-69
2022/07/28 06:49:30;;;;;;;3.67;1.17;;;15.10;99.90;;;;;;5017820;28;20042;-68
2022/07/28 06:51:56;;;;;;;3.65;1.10;;;15.10;99.90;;;;;;5000738;28;20458;-69
2022/07/28 06:54:21;;;;;;;2.28;0.95;;;15.30;99.90;;;;;;5017895;28;20045;-69
2022/07/28 06:56:47;;;;;;;2.22;1.00;;;15.20;99.90;;;;;;5018076;28;20073;-69
2022/07/28 06:59:14;;;;;;;4.18;1.77;;;15.20;99.90;;;;;;5017974;28;20431;-69
2022/07/28 07:01:40;;;;;;;2.95;1.20;;;15.20;99.90;;;;;;5017522;28;20121;-69
2022/07/28 07:04:07;;;;;;;2.47;1.35;;;15.30;99.90;;;;;;5017601;28;20092;-69
2022/07/28 07:06:32;;;;;;;2.80;1.35;;;15.30;99.90;;;;;;5017546;28;20491;-69
2022/07/28 07:08:58;;;;;;;2.35;1.00;;;15.30;99.90;;;;;;5018185;28;20037;-69
2022/07/28 07:11:24;;;;;;;3.85;1.95;;;15.30;99.90;;;;;;5017413;28;20092;-68
2022/07/28 07:13:49;;;;;;;6.05;1.50;;;15.30;99.90;;;;;;4999998;28;20095;-69
2022/07/28 07:16:15;;;;;;;3.15;1.10;;;15.40;99.90;;;;;;5017349;28;20436;-69
2022/07/28 07:18:40;;;;;;;2.85;1.25;;;15.50;99.90;;;;;;5017621;28;20581;-69
2022/07/28 07:21:06;;;;;;;2.35;0.90;;;15.50;99.90;;;;;;5017760;28;20095;-69
2022/07/28 07:23:32;;;;;;;2.50;0.80;;;15.50;99.90;;;;;;5017097;28;20486;-69
2022/07/28 07:25:57;;;;;;;3.03;0.90;;;15.50;99.90;;;;;;5016891;28;20049;-69
2022/07/28 07:28:23;;;;;;;2.97;1.27;;;15.60;99.90;;;;;;5017442;28;20049;-69
2022/07/28 07:30:49;;;;;;;2.88;0.90;;;15.70;99.90;;;;;;5017276;28;20120;-69
2022/07/28 07:33:14;;;;;;;2.03;1.02;;;15.80;99.90;;;;;;5017548;28;20104;-69
2022/07/28 07:35:40;;;;;;;2.58;1.20;;;16.00;99.90;;;;;;5016603;28;20473;-69
2022/07/28 07:38:06;;;;;;;3.55;1.10;;;16.10;99.90;;;;;;5017379;28;20045;-69
2022/07/28 07:40:31;;;;;;;3.60;1.00;;;16.20;99.90;;;;;;4999966;28;20382;-69
2022/07/28 07:42:57;;;;;;;7.70;0.90;;;16.20;99.90;;;;;;5000099;28;20430;-69
2022/07/28 07:45:22;;;;;;;2.83;0.90;;;16.20;99.90;;;;;;5017315;28;20497;-69
2022/07/28 07:47:48;;;;;;;4.82;1.38;;;16.20;99.90;;;;;;5017214;28;20465;-69
2022/07/28 07:50:13;;;;;;;3.72;1.63;;;16.20;99.90;;;;;;5016775;28;20513;-69
2022/07/28 07:52:39;;;;;;;2.47;1.00;;;16.10;99.90;;;;;;5016619;28;20076;-69
2022/07/28 07:55:05;;;;;;;3.25;1.48;;;16.00;99.90;;;;;;5016552;28;20081;-69
2022/07/28 07:57:31;;;;;;;2.58;1.20;;;15.90;99.90;;;;;;5016386;28;20463;-69
2022/07/28 07:59:56;;;;;;;3.15;1.60;;;16.00;99.90;;;;;;5016633;28;20046;-69
2022/07/28 08:02:22;;;;;;;2.85;1.50;;;15.90;99.90;;;;;;5017252;28;20358;-68
2022/07/28 08:04:47;;;;;;;3.20;1.65;;;15.90;99.90;;;;;;5016397;28;20057;-69
2022/07/28 08:07:13;;;;;;;4.05;1.75;;;15.90;99.90;;;;;;5016387;28;20045;-69
2022/07/28 08:09:39;;;;;;;3.88;2.08;;;16.00;99.90;;;;;;5016919;28;20143;-69
2022/07/28 08:12:05;;;;;;;5.40;1.77;;;16.00;99.90;;;;;;5016578;28;20046;-69
2022/07/28 08:14:30;;;;;;;5.85;1.90;;;16.10;99.90;;;;;;4999090;28;20490;-69
2022/07/28 08:16:58;;;;;;;3.95;1.65;;;16.10;99.90;;;;;;5016225;28;20050;-68
2022/07/28 08:19:23;;;;;;;4.43;1.52;;;16.40;99.90;;;;;;4999591;28;20049;-69
2022/07/28 08:21:49;;;;;;;8.15;1.77;;;16.50;99.90;;;;;;5016005;28;20046;-69
2022/07/28 08:24:15;;;;;;;2.67;1.50;;;16.70;99.90;;;;;;5015523;28;20360;-69
2022/07/28 08:26:40;;;;;;;4.85;2.15;;;16.90;99.90;;;;;;5016366;28;20104;-69
2022/07/28 08:29:06;;;;;;;6.72;1.75;;;16.90;99.90;;;;;;5015831;28;20048;-68
2022/07/28 08:31:31;;;;;;;2.22;1.17;;;17.10;99.90;;;;;;5016059;28;20046;-69
2022/07/28 08:33:57;;;;;;;4.63;1.10;;;17.40;99.90;;;;;;5015877;28;20042;-69
2022/07/28 08:36:23;;;;;;;2.58;1.33;;;17.50;99.90;;;;;;5016178;28;20042;-69
2022/07/28 08:38:48;;;;;;;2.42;1.05;;;17.50;99.90;;;;;;5016054;28;20045;-69
2022/07/28 08:41:27;;;;;;;8.35;1.65;;;17.50;99.90;;;;;;5015780;28;20195;-69
2022/07/28 08:43:55;;;;;;;6.63;1.45;;;17.70;99.90;;;;;;5016311;28;20042;-69
2022/07/28 08:46:22;;;;;;;4.25;1.20;;;17.80;99.90;;;;;;5016273;28;20060;-69
2022/07/28 08:48:49;;;;;;;2.88;0.68;;;17.80;99.90;;;;;;5015649;28;20553;-69
2022/07/28 08:51:15;;;;;;;2.38;1.10;;;17.90;99.90;;;;;;4998914;28;20125;-69
2022/07/28 08:53:42;;;;;;;4.45;0.85;;;18.10;99.90;;;;;;5015389;28;20578;-69
2022/07/28 08:56:14;;;;;;;2.22;1.08;;;18.10;99.90;;;;;;5015418;28;20068;-69
2022/07/28 08:58:40;;;;;;;3.63;1.33;;;18.20;99.90;;;;;;5015385;28;20046;-69
2022/07/28 09:01:08;;;;;;;2.90;0.80;;;18.30;99.90;;;;;;5015291;28;20470;-69
2022/07/28 09:03:34;;;;;;;1.35;0.70;;;18.30;99.90;;;;;;5015428;28;20112;-70
2022/07/28 09:06:00;;;;;;;3.80;0.98;;;18.70;99.90;;;;;;5015458;28;20077;-69
2022/07/28 09:08:26;;;;;;;3.33;0.80;;;18.60;99.90;;;;;;5015382;28;20096;-69
2022/07/28 09:10:52;;;;;;;1.83;0.90;;;18.90;99.90;;;;;;5015204;28;20458;-69
2022/07/28 09:13:18;;;;;;;6.18;1.00;;;19.10;99.90;;;;;;5015201;28;20045;-69
2022/07/28 09:15:45;;;;;;;2.70;0.80;;;19.20;99.90;;;;;;5015257;28;20382;-69
2022/07/28 09:18:15;;;;;;;18.60;1.38;;;19.40;99.90;;;;;;5015162;28;20057;-70
2022/07/28 09:20:41;;;;;;;1.13;0.60;;;19.40;99.40;;;;;;5015643;28;20081;-69
2022/07/28 09:23:08;;;;;;;1.90;0.80;;;19.50;99.90;;;;;;5015160;28;20038;-71
2022/07/28 09:25:34;;;;;;;4.68;0.90;;;19.60;98.50;;;;;;5015071;28;20057;-71
2022/07/28 09:28:10;;;;;;;0.77;0.55;;;19.60;98.90;;;;;;5015144;28;20050;-69
2022/07/28 09:30:41;;;;;;;2.20;0.70;;;19.70;99.20;;;;;;4998007;28;20116;-70
2022/07/28 09:33:14;;;;;;;3.58;0.73;;;19.70;99.50;;;;;;5015296;28;20478;-69
2022/07/28 09:35:51;;;;;;;4.60;1.08;;;19.90;98.70;;;;;;4997318;28;20461;-69
2022/07/28 09:38:18;;;;;;;5.15;0.90;;;19.90;97.50;;;;;;5014818;28;20042;-69
2022/07/28 09:40:55;;;;;;;4.43;0.80;;;20.20;97.60;;;;;;5015071;28;20081;-69
2022/07/28 09:43:51;;;;;;;1.60;0.95;;;20.50;97.60;;;;;;5015391;28;20060;-69
2022/07/28 09:46:20;;;;;;;2.53;1.00;;;20.50;95.80;;;;;;4994674;28;20054;-69
2022/07/28 09:48:50;;;;;;;1.65;0.70;;;20.80;96.90;;;;;;5014782;28;20046;-69
2022/07/28 09:51:19;;;;;;;1.08;0.50;;;20.70;96.40;;;;;;5014686;28;20049;-70
2022/07/28 09:53:44;;;;;;;2.78;0.90;;;20.90;96.30;;;;;;5015377;28;20060;-70
2022/07/28 09:56:11;;;;;;;2.72;0.90;;;21.30;97.10;;;;;;5014860;28;20455;-69
2022/07/28 09:58:39;;;;;;;3.72;0.70;;;21.40;94.90;;;;;;5014889;28;20056;-69
2022/07/28 10:01:14;;;;;;;1.90;0.95;;;21.50;96.40;;;;;;5014640;28;20042;-69
2022/07/28 10:03:44;;;;;;;3.00;0.70;;;21.70;95.80;;;;;;5014780;28;20180;-69
2022/07/28 10:06:15;;;;;;;1.60;0.68;;;21.80;96.90;;;;;;5014730;28;20046;-70
2022/07/28 10:08:45;;;;;;;5.20;0.90;;;21.70;95.60;;;;;;5015093;28;20577;-69
2022/07/28 10:11:12;;;;;;;3.78;0.82;;;21.70;95.50;;;;;;5014766;28;20050;-70
2022/07/28 10:13:52;;;;;;;1.15;0.55;;;21.70;95.00;;;;;;5014970;28;20429;-69
2022/07/28 10:16:18;;;;;;;2.05;0.80;;;21.60;95.50;;;;;;5014576;28;20116;-69
2022/07/28 10:18:44;;;;;;;3.30;0.90;;;21.80;95.40;;;;;;5014431;28;20463;-69
2022/07/28 10:21:14;;;;;;;3.95;1.48;;;21.80;94.60;;;;;;5014948;28;20057;-69
2022/07/28 10:23:43;;;;;;;2.38;0.70;;;21.50;94.30;;;;;;5014681;28;20046;-69
2022/07/28 10:26:10;;;;;;;2.10;0.95;;;21.70;95.30;;;;;;5014527;28;20050;-69
2022/07/28 10:28:45;;;;;;;3.28;1.13;;;21.90;94.50;;;;;;5014681;28;20041;-69
2022/07/28 10:31:15;;;;;;;4.72;1.30;;;21.70;94.10;;;;;;5015011;28;20050;-69
2022/07/28 10:33:47;;;;;;;4.47;1.10;;;21.70;94.90;;;;;;5015064;28;20061;-70
2022/07/28 10:36:16;;;;;;;2.03;0.80;;;21.60;94.60;;;;;;5014965;28;20042;-70
2022/07/28 10:38:42;;;;;;;2.42;1.05;;;21.60;95.00;;;;;;5014485;28;20054;-69
2022/07/28 10:41:09;;;;;;;3.85;0.90;;;21.30;94.50;;;;;;5014416;28;20134;-69
2022/07/28 10:43:35;;;;;;;1.95;0.80;;;21.20;94.80;;;;;;5014354;28;20053;-69
2022/07/28 10:46:02;;;;;;;5.15;1.20;;;21.30;95.20;;;;;;5015611;28;20052;-69
2022/07/28 10:48:29;;;;;;;3.92;0.80;;;21.20;95.40;;;;;;5017824;28;20037;-69
2022/07/28 10:50:56;;;;;;;6.82;0.80;;;21.10;94.70;;;;;;5018285;28;20037;-69
2022/07/28 10:53:33;;;;;;;2.88;0.75;;;20.90;94.70;;;;;;5018236;28;20476;-68
2022/07/28 10:56:06;;;;;;;3.75;0.90;;;20.70;94.10;;;;;;5000465;28;20049;-68
2022/07/28 10:58:43;;;;;;;2.25;0.85;;;20.90;95.70;;;;;;5017745;28;20077;-69
2022/07/28 11:01:09;;;;;;;1.13;0.70;;;21.00;95.50;;;;;;5017514;28;20050;-68
2022/07/28 11:03:42;;;;;;;1.50;0.80;;;21.00;95.00;;;;;;5017267;28;20427;-69
2022/07/28 11:06:28;;;;;;;2.17;0.70;;;20.80;93.90;;;;;;5017559;28;20046;-70
2022/07/28 11:08:59;;;;;;;6.22;0.98;;;20.90;94.40;;;;;;5017951;28;20120;-68
2022/07/28 11:11:49;;;;;;;2.05;0.70;;;21.00;95.10;;;;;;5017424;28;20092;-68
2022/07/28 11:14:24;;;;;;;1.40;0.82;;;21.00;94.00;;;;;;5017461;28;20041;-69
2022/07/28 11:17:11;;;;;;;2.25;0.70;;;21.30;94.40;;;;;;5017237;28;20060;-69
2022/07/28 11:19:42;;;;;;;5.28;1.13;;;21.50;93.80;;;;;;5017363;28;20052;-69
2022/07/28 11:22:14;;;;;;;3.03;0.70;;;21.70;93.70;;;;;;5017649;28;20438;-69
2022/07/28 11:25:01;;;;;;;4.20;0.85;;;21.80;93.00;;;;;;5017172;28;20437;-69
2022/07/28 11:27:42;;;;;;;1.88;0.70;;;22.00;93.50;;;;;;5017000;28;20049;-71
2022/07/28 11:30:08;;;;;;;9.85;0.70;;;22.30;93.70;;;;;;5017096;28;20056;-69
2022/07/28 11:32:49;;;;;;;3.28;0.82;;;22.40;92.30;;;;;;5017088;28;20077;-69
2022/07/28 11:35:24;;;;;;;2.65;0.80;;;22.80;93.10;;;;;;5017120;28;20141;-69
2022/07/28 11:38:02;;;;;;;5.63;1.02;;;22.80;92.40;;;;;;5016684;28;20085;-68
2022/07/28 11:40:40;;;;;;;0.73;0.68;;;22.70;92.60;;;;;;5000114;28;20077;-69
2022/07/28 11:43:20;;;;;;;2.50;0.73;;;22.70;92.00;;;;;;5017142;28;20168;-68
2022/07/28 11:45:51;;;;;;;4.97;0.90;;;22.80;93.00;;;;;;4999715;28;20471;-70
2022/07/28 11:48:22;;;;;;;4.93;0.80;;;22.70;92.50;;;;;;5016658;28;20050;-69
2022/07/28 11:51:02;;;;;;;3.45;1.55;;;22.70;92.00;;;;;;5016650;28;20045;-69
2022/07/28 11:53:34;;;;;;;1.17;0.68;;;22.60;92.10;;;;;;4999868;28;20136;-69
2022/07/28 11:56:05;;;;;;;2.90;1.03;;;22.60;91.60;;;;;;5016665;28;20069;-69
2022/07/28 11:58:30;;;;;;;1.73;0.82;;;22.50;92.20;;;;;;5015665;28;20038;-69
2022/07/28 12:01:26;;;;;;;1.40;0.60;;;22.30;92.40;;;;;;5016428;28;20050;-69
2022/07/28 12:03:53;;;;;;;2.17;0.73;;;21.70;93.40;;;;;;4995972;28;20053;-69
2022/07/28 12:06:20;;;;;;;3.65;0.75;;;21.50;93.80;;;;;;5016624;28;20127;-69
2022/07/28 12:08:51;;;;;;;1.02;0.65;;;21.40;93.70;;;;;;5016477;28;20125;-69
2022/07/28 12:11:18;;;;;;;2.22;0.95;;;21.20;93.90;;;;;;5016206;28;20152;-68
2022/07/28 12:13:44;;;;;;;2.28;0.70;;;21.20;93.60;;;;;;5016178;28;20056;-69
2022/07/28 12:16:10;;;;;;;2.58;0.88;;;21.00;93.60;;;;;;5016496;28;20046;-69
2022/07/28 12:18:36;;;;;;;2.92;1.00;;;21.00;93.70;;;;;;5016610;28;20358;-69
2022/07/28 12:21:02;;;;;;;2.22;0.70;;;21.00;93.90;;;;;;5016175;28;20125;-69
2022/07/28 12:23:32;;;;;;;2.97;0.90;;;20.90;93.70;;;;;;5016123;28;20398;-69
2022/07/28 12:26:03;;;;;;;1.85;0.98;;;20.90;93.90;;;;;;5016211;28;20058;-69
2022/07/28 12:28:31;;;;;;;3.88;0.70;;;20.90;94.40;;;;;;4999006;28;20041;-68
2022/07/28 12:31:12;;;;;;;3.70;0.60;;;20.80;93.90;;;;;;4998468;28;20046;-69
2022/07/28 12:33:38;;;;;;;2.78;0.70;;;21.10;94.00;;;;;;5016270;28;20045;-69
2022/07/28 12:36:04;;;;;;;3.30;1.00;;;21.30;94.70;;;;;;5016354;28;20050;-69
2022/07/28 12:38:30;;;;;;;3.92;1.33;;;21.50;93.60;;;;;;5015531;28;20069;-68
2022/07/28 12:40:55;;;;;;;1.23;0.55;;;21.60;93.20;;;;;;5015681;28;20042;-69
2022/07/28 12:43:26;;;;;;;2.25;0.70;;;21.70;93.30;;;;;;5015784;28;20111;-69
2022/07/28 12:45:52;;;;;;;2.17;0.70;;;21.90;93.70;;;;;;5015734;28;20191;-69
2022/07/28 12:48:18;;;;;;;2.90;1.23;;;22.20;93.30;;;;;;5016287;28;20045;-69
2022/07/28 12:50:45;;;;;;;1.45;0.60;;;22.40;93.20;;;;;;5015284;28;20049;-69
2022/07/28 12:53:12;;;;;;;2.20;0.70;;;22.40;91.90;;;;;;5015971;28;20073;-69
2022/07/28 12:55:39;;;;;;;1.95;0.68;;;21.90;92.20;;;;;;5015569;28;20054;-68
2022/07/28 12:58:05;;;;;;;1.63;0.50;;;21.40;92.40;;;;;;5015925;28;20061;-69